Time;durP1;ratioP1;P1;durP2;ratioP2;P2;SDS_P1;SDS_P2;PMS_P1;PMS_P2;Temp;Humidity;BMP_temperature;BMP_pressure;BME280_temperature;BME280_humidity;BME280_pressure;Samples;Min_cycle;Max_cycle;Signal;HPM_P1;HPM_P2
2023/12/30 00:02:22;;;;;;;;;;;9.40;99.90;;;;;;2618755;54;19950;-73
2023/12/30 00:04:54;;;;;;;;;;;9.50;99.90;;;;;;2617884;47;19954;-73
2023/12/30 00:07:24;;;;;;;;;;;9.50;99.90;;;;;;2618533;54;19953;-73
2023/12/30 00:09:54;;;;;;;;;;;9.50;99.90;;;;;;2617536;54;19954;-73
2023/12/30 00:12:23;;;;;;;;;;;9.50;99.90;;;;;;2618339;47;20008;-73
2023/12/30 00:14:53;;;;;;;;;;;9.50;99.90;;;;;;2619495;54;19945;-73
2023/12/30 00:17:23;;;;;;;;;;;9.50;99.90;;;;;;2623738;47;19947;-73
2023/12/30 00:19:55;;;;;;;;;;;9.50;99.90;;;;;;2618298;47;19950;-73
2023/12/30 00:22:26;;;;;;;;;;;9.50;99.90;;;;;;2618558;47;19939;-73
2023/12/30 00:24:55;;;;;;;;;;;9.40;99.90;;;;;;2618280;47;20057;-73
2023/12/30 00:27:25;;;;;;;;;;;9.40;99.90;;;;;;2618557;47;20870;-73
2023/12/30 00:29:55;;;;;;;;;;;9.40;99.90;;;;;;2618071;47;20512;-73
2023/12/30 00:32:24;;;;;;;;;;;9.40;99.90;;;;;;2618261;54;20539;-73
2023/12/30 00:34:56;;;;;;;;;;;9.40;99.90;;;;;;2617572;54;20046;-73
2023/12/30 00:37:26;;;;;;;;;;;9.40;99.90;;;;;;2618080;54;19950;-73
2023/12/30 00:39:56;;;;;;;;;;;9.40;99.90;;;;;;2617858;47;19953;-73
2023/12/30 00:42:26;;;;;;;;;;;9.40;99.90;;;;;;2618391;54;19950;-73
2023/12/30 00:44:55;;;;;;;;;;;9.40;99.90;;;;;;2617439;54;19939;-73
2023/12/30 00:47:25;;;;;;;;;;;9.40;99.90;;;;;;2618485;47;19954;-73
2023/12/30 00:49:57;;;;;;;;;;;9.40;99.90;;;;;;2619394;39;20041;-73
2023/12/30 00:52:27;;;;;;;;;;;9.50;99.90;;;;;;2618142;47;19954;-73
2023/12/30 00:54:56;;;;;;;;;;;9.40;99.90;;;;;;2618153;54;19939;-72
2023/12/30 00:57:26;;;;;;;;;;;9.30;99.90;;;;;;2622586;54;20007;-73
2023/12/30 00:59:56;;;;;;;;;;;9.30;99.90;;;;;;2619885;39;20349;-72
2023/12/30 01:02:25;;;;;;;;;;;9.30;99.90;;;;;;2617950;54;19977;-72
2023/12/30 01:04:57;;;;;;;;;;;9.20;99.90;;;;;;2619594;54;19945;-72
2023/12/30 01:07:27;;;;;;;;;;;9.20;99.90;;;;;;2620248;54;19953;-72
2023/12/30 01:09:57;;;;;;;;;;;9.10;99.90;;;;;;2624374;47;19947;-72
2023/12/30 01:12:26;;;;;;;;;;;9.20;99.90;;;;;;2618470;54;20006;-72
2023/12/30 01:14:56;;;;;;;;;;;9.20;99.90;;;;;;2617221;47;19961;-73
2023/12/30 01:17:25;;;;;;;;;;;9.20;99.90;;;;;;2619433;54;20437;-73
2023/12/30 01:19:58;;;;;;;;;;;9.20;99.90;;;;;;2619773;54;19947;-73
2023/12/30 01:22:27;;;;;;;;;;;9.40;99.90;;;;;;2620490;39;20002;-73
2023/12/30 01:24:57;;;;;;;;;;;9.20;99.90;;;;;;2618464;47;19950;-73
2023/12/30 01:27:27;;;;;;;;;;;9.20;99.90;;;;;;2619666;47;19950;-74
2023/12/30 01:29:56;;;;;;;;;;;9.20;99.90;;;;;;2620571;54;19957;-73
2023/12/30 01:32:26;;;;;;;;;;;9.20;99.90;;;;;;2624248;47;19946;-75
2023/12/30 01:34:58;;;;;;;;;;;9.20;99.90;;;;;;2624668;47;20014;-74
2023/12/30 01:37:28;;;;;;;;;;;9.20;99.90;;;;;;2622077;47;19947;-72
2023/12/30 01:39:58;;;;;;;;;;;9.20;99.90;;;;;;2618701;47;19988;-73
2023/12/30 01:42:28;;;;;;;;;;;9.10;99.90;;;;;;2619549;54;19953;-73
2023/12/30 01:44:57;;;;;;;;;;;9.10;99.90;;;;;;2619384;46;19938;-73
2023/12/30 01:47:27;;;;;;;;;;;9.10;99.90;;;;;;2622235;31;20428;-73
2023/12/30 01:49:59;;;;;;;;;;;9.10;99.90;;;;;;2621536;54;19958;-74
2023/12/30 01:52:29;;;;;;;;;;;9.10;99.90;;;;;;2623457;47;19946;-73
2023/12/30 01:54:59;;;;;;;;;;;9.10;99.90;;;;;;2623062;54;19958;-73
2023/12/30 01:57:28;;;;;;;;;;;9.10;99.90;;;;;;2624040;54;19988;-73
2023/12/30 01:59:59;;;;;;;;;;;9.10;99.90;;;;;;2624163;47;19946;-72
2023/12/30 02:02:29;;;;;;;;;;;9.10;99.90;;;;;;2625000;47;19947;-72
2023/12/30 02:05:02;;;;;;;;;;;9.10;99.90;;;;;;2623859;47;20029;-73
2023/12/30 02:07:32;;;;;;;;;;;9.10;99.90;;;;;;2620387;54;19938;-73
2023/12/30 02:10:03;;;;;;;;;;;9.10;99.90;;;;;;2621816;54;19950;-73
2023/12/30 02:12:32;;;;;;;;;;;9.10;99.90;;;;;;2624494;54;19984;-73
2023/12/30 02:15:12;;;;;;;;;;;9.10;99.90;;;;;;2620860;47;19946;-74
2023/12/30 02:17:42;;;;;;;;;;;9.10;99.90;;;;;;2620648;47;19945;-73
2023/12/30 02:20:14;;;;;;;;;;;9.10;99.90;;;;;;2619925;39;20353;-73
2023/12/30 02:22:47;;;;;;;;;;;9.10;99.90;;;;;;2622577;39;20325;-73
2023/12/30 02:25:17;;;;;;;;;;;9.10;99.90;;;;;;2619062;47;19939;-73
2023/12/30 02:27:47;;;;;;;;;;;9.10;99.90;;;;;;2621938;46;20045;-72
2023/12/30 02:30:17;;;;;;;;;;;9.20;99.90;;;;;;2622577;46;20426;-72
2023/12/30 02:32:46;;;;;;;;;;;9.10;99.90;;;;;;2620514;54;19939;-73
2023/12/30 02:35:16;;;;;;;;;;;9.20;99.90;;;;;;2619969;47;19947;-74
2023/12/30 02:37:48;;;;;;;;;;;9.20;99.90;;;;;;2620029;47;19981;-72
2023/12/30 02:40:18;;;;;;;;;;;9.20;99.90;;;;;;2619340;54;19946;-73
2023/12/30 02:42:47;;;;;;;;;;;9.20;99.90;;;;;;2619184;54;19939;-71
2023/12/30 02:45:17;;;;;;;;;;;9.20;99.90;;;;;;2618007;54;19969;-73
2023/12/30 02:47:47;;;;;;;;;;;9.20;99.90;;;;;;2618408;54;20033;-72
2023/12/30 02:50:17;;;;;;;;;;;9.20;99.90;;;;;;2618241;54;19947;-71
2023/12/30 02:52:49;;;;;;;;;;;9.20;99.90;;;;;;2618212;54;20053;-72
2023/12/30 02:55:19;;;;;;;;;;;9.20;99.90;;;;;;2618042;39;20700;-71
2023/12/30 02:57:49;;;;;;;;;;;9.40;99.90;;;;;;2619410;46;19945;-72
2023/12/30 03:00:19;;;;;;;;;;;9.20;99.90;;;;;;2622780;47;19954;-72
2023/12/30 03:02:49;;;;;;;;;;;9.20;99.90;;;;;;2617953;47;19954;-74
2023/12/30 03:05:19;;;;;;;;;;;9.20;99.90;;;;;;2617619;47;19946;-72
2023/12/30 03:07:51;;;;;;;;;;;9.20;99.90;;;;;;2617983;54;20505;-72
2023/12/30 03:10:21;;;;;;;;;;;9.10;99.90;;;;;;2617652;54;19947;-72
2023/12/30 03:12:51;;;;;;;;;;;9.10;99.90;;;;;;2618247;54;19954;-72
2023/12/30 03:15:22;;;;;;;;;;;9.10;99.90;;;;;;2617233;51;19956;-73
2023/12/30 03:17:52;;;;;;;;;;;9.10;99.90;;;;;;2617845;47;19947;-73
2023/12/30 03:20:22;;;;;;;;;;;9.30;99.90;;;;;;2617996;39;20397;-72
2023/12/30 03:22:54;;;;;;;;;;;9.10;99.90;;;;;;2617709;54;19947;-73
2023/12/30 03:25:23;;;;;;;;;;;9.10;99.90;;;;;;2617062;54;19950;-72
2023/12/30 03:27:53;;;;;;;;;;;9.10;99.90;;;;;;2618040;54;19939;-73
2023/12/30 03:30:23;;;;;;;;;;;9.10;99.90;;;;;;2617791;47;19938;-71
2023/12/30 03:32:52;;;;;;;;;;;9.10;99.90;;;;;;2618195;47;19965;-71
2023/12/30 03:35:22;;;;;;;;;;;9.10;99.90;;;;;;2623291;47;20002;-72
2023/12/30 03:37:55;;;;;;;;;;;9.10;99.90;;;;;;2623237;46;19953;-71
2023/12/30 03:40:24;;;;;;;;;;;9.10;99.90;;;;;;2619192;47;19976;-71
2023/12/30 03:42:54;;;;;;;;;;;9.20;99.90;;;;;;2618912;47;19954;-72
2023/12/30 03:45:23;;;;;;;;;;;9.20;99.90;;;;;;2617856;54;20981;-71
2023/12/30 03:47:53;;;;;;;;;;;9.20;99.90;;;;;;2618383;54;20042;-71
2023/12/30 03:50:23;;;;;;;;;;;9.20;99.90;;;;;;2620188;49;19954;-71
2023/12/30 03:52:55;;;;;;;;;;;9.20;99.90;;;;;;2624693;54;19938;-71
2023/12/30 03:55:25;;;;;;;;;;;9.10;99.90;;;;;;2623738;54;19943;-72
2023/12/30 03:57:54;;;;;;;;;;;9.40;99.90;;;;;;2618391;47;19945;-71
2023/12/30 04:00:24;;;;;;;;;;;9.30;99.90;;;;;;2617175;54;20116;-72
2023/12/30 04:02:54;;;;;;;;;;;9.30;99.90;;;;;;2618416;47;20700;-72
2023/12/30 04:05:24;;;;;;;;;;;9.30;99.90;;;;;;2617986;47;20445;-72
2023/12/30 04:07:56;;;;;;;;;;;9.30;99.90;;;;;;2617406;54;20452;-72
2023/12/30 04:10:26;;;;;;;;;;;9.30;99.90;;;;;;2618025;47;19965;-72
2023/12/30 04:12:56;;;;;;;;;;;9.40;99.90;;;;;;2617158;54;19947;-72
2023/12/30 04:15:25;;;;;;;;;;;9.40;99.90;;;;;;2616792;54;20042;-72
2023/12/30 04:17:55;;;;;;;;;;;9.40;99.90;;;;;;2619063;54;20784;-72
2023/12/30 04:20:24;;;;;;;;;;;9.40;99.90;;;;;;2618519;54;20459;-72
2023/12/30 04:22:57;;;;;;;;;;;9.50;99.90;;;;;;2617735;54;19945;-72
2023/12/30 04:25:27;;;;;;;;;;;9.40;99.90;;;;;;2616819;47;19954;-72
2023/12/30 04:27:57;;;;;;;;;;;9.40;99.90;;;;;;2618050;47;19939;-72
2023/12/30 04:30:27;;;;;;;;;;;9.30;99.90;;;;;;2617728;54;19954;-72
2023/12/30 04:32:57;;;;;;;;;;;9.30;99.90;;;;;;2618757;54;20425;-72
2023/12/30 04:35:26;;;;;;;;;;;9.30;99.90;;;;;;2618123;31;20386;-72
2023/12/30 04:37:59;;;;;;;;;;;9.30;99.90;;;;;;2618050;46;19972;-72
2023/12/30 04:40:28;;;;;;;;;;;9.30;99.90;;;;;;2618235;54;19986;-72
2023/12/30 04:42:58;;;;;;;;;;;9.30;99.90;;;;;;2625203;39;20363;-71
2023/12/30 04:45:28;;;;;;;;;;;9.20;99.90;;;;;;2623671;47;19945;-72
2023/12/30 04:47:58;;;;;;;;;;;9.20;99.90;;;;;;2623598;46;19950;-72
2023/12/30 04:50:28;;;;;;;;;;;9.20;99.90;;;;;;2621257;47;19950;-72
2023/12/30 04:53:00;;;;;;;;;;;9.20;99.90;;;;;;2618729;54;19954;-72
2023/12/30 04:55:30;;;;;;;;;;;9.20;99.90;;;;;;2618187;39;20014;-72
2023/12/30 04:58:00;;;;;;;;;;;9.20;99.90;;;;;;2618717;47;19958;-72
2023/12/30 05:00:29;;;;;;;;;;;9.20;99.90;;;;;;2618310;39;20679;-73
2023/12/30 05:02:59;;;;;;;;;;;9.10;99.90;;;;;;2627453;39;20373;-72
2023/12/30 05:05:29;;;;;;;;;;;9.10;99.90;;;;;;2617560;54;19997;-72
2023/12/30 05:08:01;;;;;;;;;;;9.10;99.90;;;;;;2619306;46;19954;-72
2023/12/30 05:10:35;;;;;;;;;;;9.10;99.90;;;;;;2618860;54;19952;-72
2023/12/30 05:13:05;;;;;;;;;;;9.60;99.90;;;;;;2619571;54;19957;-73
2023/12/30 05:15:35;;;;;;;;;;;9.10;99.90;;;;;;2618254;47;20018;-72
2023/12/30 05:18:05;;;;;;;;;;;9.10;99.90;;;;;;2618750;54;20735;-72
2023/12/30 05:20:35;;;;;;;;;;;9.10;99.90;;;;;;2618408;47;19939;-72
2023/12/30 05:23:07;;;;;;;;;;;9.10;99.90;;;;;;2618190;50;20445;-72
2023/12/30 05:25:37;;;;;;;;;;;9.10;99.90;;;;;;2617982;46;19946;-72
2023/12/30 05:28:07;;;;;;;;;;;9.10;99.90;;;;;;2618122;54;19960;-72
2023/12/30 05:30:36;;;;;;;;;;;9.10;99.90;;;;;;2620282;54;19950;-73
2023/12/30 05:33:06;;;;;;;;;;;9.10;99.90;;;;;;2620796;51;19951;-72
2023/12/30 05:35:37;;;;;;;;;;;9.20;99.90;;;;;;2618692;47;20038;-73
2023/12/30 05:38:12;;;;;;;;;;;9.20;99.90;;;;;;2619545;54;19957;-72
2023/12/30 05:40:42;;;;;;;;;;;9.20;99.90;;;;;;2618960;54;19962;-72
2023/12/30 05:43:12;;;;;;;;;;;9.20;99.90;;;;;;2619501;54;19946;-72
2023/12/30 05:45:43;;;;;;;;;;;9.20;99.90;;;;;;2618662;54;19954;-72
2023/12/30 05:48:14;;;;;;;;;;;9.20;99.90;;;;;;2618668;47;19946;-72
2023/12/30 05:50:44;;;;;;;;;;;9.20;99.90;;;;;;2618977;39;20352;-72
2023/12/30 05:53:16;;;;;;;;;;;9.20;99.90;;;;;;2619812;54;19957;-72
2023/12/30 05:55:45;;;;;;;;;;;9.30;99.90;;;;;;2618811;47;19950;-72
2023/12/30 05:58:15;;;;;;;;;;;9.30;99.90;;;;;;2619213;47;19989;-72
2023/12/30 06:00:45;;;;;;;;;;;9.30;99.90;;;;;;2618877;54;19954;-72
2023/12/30 06:03:15;;;;;;;;;;;9.30;99.90;;;;;;2619977;39;20342;-72
2023/12/30 06:05:44;;;;;;;;;;;9.30;99.90;;;;;;2619723;47;19946;-72
2023/12/30 06:08:17;;;;;;;;;;;9.30;99.90;;;;;;2620080;48;19973;-72
2023/12/30 06:10:51;;;;;;;;;;;9.30;99.90;;;;;;2619488;54;19953;-73
2023/12/30 06:13:21;;;;;;;;;;;9.30;99.90;;;;;;2620073;54;19946;-72
2023/12/30 06:15:51;;;;;;;;;;;9.30;99.90;;;;;;2619209;39;20337;-72
2023/12/30 06:18:21;;;;;;;;;;;9.20;99.90;;;;;;2619273;47;19939;-72
2023/12/30 06:20:50;;;;;;;;;;;9.20;99.90;;;;;;2619008;47;19946;-72
2023/12/30 06:23:23;;;;;;;;;;;9.20;99.90;;;;;;2619736;47;20009;-72
2023/12/30 06:25:52;;;;;;;;;;;9.20;99.90;;;;;;2618683;54;19947;-71
2023/12/30 06:28:24;;;;;;;;;;;9.20;99.90;;;;;;2619228;47;20496;-72
2023/12/30 06:30:54;;;;;;;;;;;9.10;99.90;;;;;;2619142;39;20372;-73
2023/12/30 06:33:24;;;;;;;;;;;9.20;99.90;;;;;;2619832;54;19938;-72
2023/12/30 06:35:54;;;;;;;;;;;9.10;99.90;;;;;;2619175;54;20048;-72
2023/12/30 06:38:26;;;;;;;;;;;9.00;99.90;;;;;;2619604;54;19945;-72
2023/12/30 06:40:56;;;;;;;;;;;9.10;99.90;;;;;;2618668;47;19945;-72
2023/12/30 06:43:25;;;;;;;;;;;9.10;99.90;;;;;;2620109;54;19947;-72
2023/12/30 06:45:55;;;;;;;;;;;9.00;99.90;;;;;;2619479;54;19947;-72
2023/12/30 06:48:25;;;;;;;;;;;9.10;99.90;;;;;;2620165;54;19965;-73
2023/12/30 06:50:56;;;;;;;;;;;9.10;99.90;;;;;;2619287;47;19939;-73
2023/12/30 06:53:31;;;;;;;;;;;9.10;99.90;;;;;;2622030;47;19953;-72
2023/12/30 06:56:02;;;;;;;;;;;9.10;99.90;;;;;;2624516;39;20321;-72
2023/12/30 06:58:32;;;;;;;;;;;9.10;99.90;;;;;;2623684;54;19977;-72
2023/12/30 07:01:01;;;;;;;;;;;9.00;99.90;;;;;;2617225;47;20507;-73
2023/12/30 07:03:32;;;;;;;;;;;9.10;99.90;;;;;;2618062;54;19946;-73
2023/12/30 07:06:02;;;;;;;;;;;9.00;99.90;;;;;;2620601;47;19998;-73
2023/12/30 07:08:34;;;;;;;;;;;9.00;99.90;;;;;;2620564;54;19953;-73
2023/12/30 07:11:04;;;;;;;;;;;9.10;99.90;;;;;;2619433;54;19946;-73
2023/12/30 07:13:34;;;;;;;;;;;9.10;99.90;;;;;;2620237;47;19938;-73
2023/12/30 07:16:04;;;;;;;;;;;9.10;99.90;;;;;;2624098;54;19950;-73
2023/12/30 07:18:34;;;;;;;;;;;9.10;99.90;;;;;;2624076;47;19946;-74
2023/12/30 07:21:03;;;;;;;;;;;9.20;99.90;;;;;;2623570;54;19951;-72
2023/12/30 07:23:36;;;;;;;;;;;9.20;99.90;;;;;;2622842;47;19939;-72
2023/12/30 07:26:05;;;;;;;;;;;9.20;99.90;;;;;;2623354;54;19939;-72
2023/12/30 07:28:35;;;;;;;;;;;9.20;99.90;;;;;;2623985;54;19939;-72
2023/12/30 07:31:05;;;;;;;;;;;9.20;99.90;;;;;;2623473;54;19947;-72
2023/12/30 07:33:36;;;;;;;;;;;9.20;99.90;;;;;;2624262;54;19950;-72
2023/12/30 07:36:07;;;;;;;;;;;9.30;99.90;;;;;;2623418;54;19950;-72
2023/12/30 07:38:39;;;;;;;;;;;9.30;99.90;;;;;;2624340;47;19954;-73
2023/12/30 07:41:14;;;;;;;;;;;9.30;99.90;;;;;;2623255;47;20256;-72
2023/12/30 07:43:43;;;;;;;;;;;9.30;99.90;;;;;;2623497;54;20015;-72
2023/12/30 07:46:13;;;;;;;;;;;9.30;99.90;;;;;;2622731;54;20485;-72
2023/12/30 07:48:43;;;;;;;;;;;9.30;99.90;;;;;;2621397;51;19938;-72
2023/12/30 07:51:13;;;;;;;;;;;9.30;99.90;;;;;;2620731;47;19939;-72
2023/12/30 07:53:45;;;;;;;;;;;9.30;99.90;;;;;;2617421;54;19953;-72
2023/12/30 07:56:16;;;;;;;;;;;9.30;99.90;;;;;;2617509;52;19954;-72
2023/12/30 07:58:45;;;;;;;;;;;9.30;99.90;;;;;;2619469;54;20451;-72
2023/12/30 08:01:15;;;;;;;;;;;9.30;99.90;;;;;;2617282;47;20457;-73
2023/12/30 08:03:45;;;;;;;;;;;9.30;99.90;;;;;;2617935;47;19981;-73
2023/12/30 08:06:15;;;;;;;;;;;9.30;99.90;;;;;;2617625;54;19938;-72
2023/12/30 08:08:47;;;;;;;;;;;9.30;99.90;;;;;;2618012;54;19939;-71
2023/12/30 08:11:16;;;;;;;;;;;9.30;99.90;;;;;;2617600;39;20333;-71
2023/12/30 08:13:46;;;;;;;;;;;9.30;99.90;;;;;;2617959;54;19946;-71
2023/12/30 08:16:16;;;;;;;;;;;9.40;99.90;;;;;;2617276;54;19957;-72
2023/12/30 08:18:45;;;;;;;;;;;9.40;99.90;;;;;;2617236;47;19943;-72
2023/12/30 08:21:15;;;;;;;;;;;9.40;99.90;;;;;;2617455;39;20348;-72
2023/12/30 08:23:48;;;;;;;;;;;9.40;99.90;;;;;;2616872;47;19964;-72
2023/12/30 08:26:17;;;;;;;;;;;9.40;99.90;;;;;;2617131;54;19969;-71
2023/12/30 08:28:47;;;;;;;;;;;9.50;99.90;;;;;;2618798;39;20345;-73
2023/12/30 08:31:17;;;;;;;;;;;9.50;99.90;;;;;;2618533;47;19965;-73
2023/12/30 08:33:46;;;;;;;;;;;9.50;99.90;;;;;;2618096;46;19950;-71
2023/12/30 08:36:16;;;;;;;;;;;9.50;99.90;;;;;;2617925;47;20433;-73
2023/12/30 08:38:48;;;;;;;;;;;9.60;99.90;;;;;;2620572;47;19947;-74
2023/12/30 08:41:23;;;;;;;;;;;9.60;99.90;;;;;;2619428;54;19946;-73
2023/12/30 08:43:55;;;;;;;;;;;9.60;99.90;;;;;;2618388;46;19965;-74
2023/12/30 08:46:25;;;;;;;;;;;9.60;99.90;;;;;;2618750;39;20328;-73
2023/12/30 08:48:55;;;;;;;;;;;9.70;99.90;;;;;;2618321;54;19947;-73
2023/12/30 08:51:25;;;;;;;;;;;9.70;99.90;;;;;;2618641;47;19947;-72
2023/12/30 08:53:58;;;;;;;;;;;9.70;99.90;;;;;;2618422;47;19997;-73
2023/12/30 08:56:32;;;;;;;;;;;9.60;99.90;;;;;;2619047;54;19953;-72
2023/12/30 08:59:03;;;;;;;;;;;9.80;99.90;;;;;;2618481;54;19985;-73
2023/12/30 09:01:32;;;;;;;;;;;9.80;99.90;;;;;;2619460;47;19945;-73
2023/12/30 09:04:02;;;;;;;;;;;9.80;99.90;;;;;;2618624;54;20436;-73
2023/12/30 09:06:32;;;;;;;;;;;9.80;99.90;;;;;;2621593;54;19946;-75
2023/12/30 09:09:05;;;;;;;;;;;9.90;99.90;;;;;;2623008;47;19946;-73
2023/12/30 09:11:37;;;;;;;;;;;9.80;99.90;;;;;;2623743;54;20037;-74
2023/12/30 09:14:08;;;;;;;;;;;9.90;99.90;;;;;;2619313;48;20056;-74
2023/12/30 09:16:37;;;;;;;;;;;9.80;99.90;;;;;;2619788;39;20367;-74
2023/12/30 09:19:07;;;;;;;;;;;9.70;99.90;;;;;;2618806;47;19939;-75
2023/12/30 09:21:37;;;;;;;;;;;9.90;99.90;;;;;;2619543;47;19946;-75
2023/12/30 09:24:10;;;;;;;;;;;9.90;99.90;;;;;;2617928;47;20033;-71
2023/12/30 09:26:39;;;;;;;;;;;9.90;99.90;;;;;;2619787;47;19946;-73
2023/12/30 09:29:09;;;;;;;;;;;9.90;99.90;;;;;;2618604;54;20456;-74
2023/12/30 09:31:40;;;;;;;;;;;10.00;99.90;;;;;;2618484;54;19946;-74
2023/12/30 09:34:09;;;;;;;;;;;10.00;99.90;;;;;;2620448;47;19996;-75
2023/12/30 09:36:39;;;;;;;;;;;10.00;99.90;;;;;;2620010;47;19994;-74
2023/12/30 09:39:12;;;;;;;;;;;10.00;99.90;;;;;;2619316;46;19939;-74
2023/12/30 09:41:42;;;;;;;;;;;10.00;99.90;;;;;;2618638;54;19947;-75
2023/12/30 09:44:13;;;;;;;;;;;10.10;99.90;;;;;;2618771;47;19954;-75
2023/12/30 09:46:42;;;;;;;;;;;10.10;99.90;;;;;;2620398;54;19947;-75
2023/12/30 09:49:15;;;;;;;;;;;10.10;99.90;;;;;;2619773;47;19947;-74
2023/12/30 09:51:45;;;;;;;;;;;10.10;99.90;;;;;;2619236;47;20072;-74
2023/12/30 09:54:17;;;;;;;;;;;10.10;99.90;;;;;;2619304;47;19947;-73
2023/12/30 09:56:47;;;;;;;;;;;10.10;99.90;;;;;;2617903;54;20454;-75
2023/12/30 09:59:17;;;;;;;;;;;10.00;99.90;;;;;;2616903;47;20041;-73
2023/12/30 10:01:46;;;;;;;;;;;10.10;99.90;;;;;;2618616;54;19950;-74
2023/12/30 10:04:16;;;;;;;;;;;10.10;99.90;;;;;;2616893;47;20029;-73
2023/12/30 10:06:46;;;;;;;;;;;10.10;99.90;;;;;;2617755;54;19955;-75
2023/12/30 10:09:18;;;;;;;;;;;10.10;99.90;;;;;;2616349;47;19950;-74
2023/12/30 10:11:48;;;;;;;;;;;10.10;99.90;;;;;;2617446;54;19954;-74
2023/12/30 10:14:18;;;;;;;;;;;10.10;99.90;;;;;;2617274;54;19997;-75
2023/12/30 10:16:48;;;;;;;;;;;10.20;99.90;;;;;;2617376;54;20065;-74
2023/12/30 10:19:18;;;;;;;;;;;10.20;99.90;;;;;;2616507;47;19946;-74
2023/12/30 10:21:47;;;;;;;;;;;10.20;99.90;;;;;;2617796;54;19939;-75
2023/12/30 10:24:20;;;;;;;;;;;10.20;99.90;;;;;;2616811;47;19951;-75
2023/12/30 10:26:49;;;;;;;;;;;10.20;99.90;;;;;;2618690;54;20495;-74
2023/12/30 10:29:19;;;;;;;;;;;10.30;99.90;;;;;;2619201;54;19954;-74
2023/12/30 10:32:00;;;;;;;;;;;10.40;99.90;;;;;;2619201;53;19997;-75
2023/12/30 10:34:31;;;;;;;;;;;10.30;99.90;;;;;;2620494;54;19955;-76
2023/12/30 10:37:02;;;;;;;;;;;10.30;99.90;;;;;;2621380;47;19950;-75
2023/12/30 10:39:34;;;;;;;;;;;10.40;99.90;;;;;;2619703;47;19978;-76
2023/12/30 10:42:06;;;;;;;;;;;10.40;99.90;;;;;;2623452;47;19946;-79
2023/12/30 10:44:36;;;;;;;;;;;10.40;99.90;;;;;;2624134;47;19938;-76
2023/12/30 10:47:08;;;;;;;;;;;10.50;99.90;;;;;;2626207;47;19934;-76
2023/12/30 10:49:40;;;;;;;;;;;10.50;99.90;;;;;;2627076;54;19962;-74
2023/12/30 10:52:11;;;;;;;;;;;10.60;99.90;;;;;;2625545;54;19964;-77
2023/12/30 10:54:48;;;;;;;;;;;10.70;99.90;;;;;;2624563;47;19958;-77
2023/12/30 10:57:20;;;;;;;;;;;10.70;99.90;;;;;;2626700;47;19959;-75
2023/12/30 10:59:52;;;;;;;;;;;10.80;99.90;;;;;;2625475;54;20062;-77
2023/12/30 11:02:22;;;;;;;;;;;10.80;99.90;;;;;;2625488;47;19973;-76
2023/12/30 11:04:54;;;;;;;;;;;10.90;99.90;;;;;;2622150;47;19954;-76
2023/12/30 11:07:26;;;;;;;;;;;10.90;99.90;;;;;;2621721;47;19950;-76
2023/12/30 11:09:59;;;;;;;;;;;11.00;99.90;;;;;;2621874;54;20000;-75
2023/12/30 11:12:29;;;;;;;;;;;11.10;99.90;;;;;;2623338;47;19954;-75
2023/12/30 11:15:03;;;;;;;;;;;11.10;99.90;;;;;;2621684;54;20038;-76
2023/12/30 11:17:36;;;;;;;;;;;11.20;99.90;;;;;;2620890;47;19946;-74
2023/12/30 11:20:30;;;;;;;;;;;11.40;99.90;;;;;;2622637;39;20360;-74
2023/12/30 11:23:01;;;;;;;;;;;11.40;99.90;;;;;;2622368;47;20417;-74
2023/12/30 11:25:42;;;;;;;;;;;11.50;99.90;;;;;;2621554;54;19950;-75
2023/12/30 11:28:16;;;;;;;;;;;11.50;99.90;;;;;;2624365;31;20445;-75
2023/12/30 11:30:51;;;;;;;;;;;11.50;99.90;;;;;;2623020;54;19938;-74
2023/12/30 11:33:21;;;;;;;;;;;11.60;99.90;;;;;;2622258;54;19953;-74
2023/12/30 11:35:52;;;;;;;;;;;11.90;99.90;;;;;;2622792;54;19938;-75
2023/12/30 11:38:24;;;;;;;;;;;11.50;99.90;;;;;;2622022;47;20023;-76
2023/12/30 11:40:57;;;;;;;;;;;11.60;99.90;;;;;;2621993;47;19993;-76
2023/12/30 16:42:46;;;;;;;;;;;11.50;99.90;;;;;;2587622;39;20371;-72
2023/12/30 16:45:17;;;;;;;;;;;10.30;99.90;;;;;;2605124;39;20381;-73
2023/12/30 16:47:46;;;;;;;;;;;10.20;99.90;;;;;;2605551;39;20147;-72
2023/12/30 16:50:17;;;;;;;;;;;10.20;99.90;;;;;;2604301;54;19950;-72
2023/12/30 16:52:49;;;;;;;;;;;10.10;99.90;;;;;;2605123;54;20065;-73
2023/12/30 16:55:18;;;;;;;;;;;10.10;99.90;;;;;;2603804;54;19950;-74
2023/12/30 16:57:51;;;;;;;;;;;10.00;99.90;;;;;;2605528;47;19976;-73
2023/12/30 17:00:20;;;;;;;;;;;10.00;99.90;;;;;;2607460;54;19966;-73
2023/12/30 17:02:50;;;;;;;;;;;10.00;99.90;;;;;;2609549;47;19993;-76
2023/12/30 17:05:20;;;;;;;;;;;10.00;99.90;;;;;;2608824;54;19946;-76
2023/12/30 17:07:50;;;;;;;;;;;9.90;99.90;;;;;;2606612;47;19951;-73
2023/12/30 17:10:19;;;;;;;;;;;9.90;99.90;;;;;;2609271;47;19954;-73
2023/12/30 17:12:52;;;;;;;;;;;9.90;99.90;;;;;;2615882;31;20440;-72
2023/12/30 17:15:21;;;;;;;;;;;9.80;99.90;;;;;;2620308;54;19947;-73
2023/12/30 17:17:51;;;;;;;;;;;9.70;99.90;;;;;;2619232;54;19951;-73
2023/12/30 17:20:21;;;;;;;;;;;9.70;99.90;;;;;;2617703;54;19943;-73
2023/12/30 17:22:50;;;;;;;;;;;9.70;99.90;;;;;;2618526;54;19945;-73
2023/12/30 17:25:20;;;;;;;;;;;9.60;99.90;;;;;;2617536;54;19947;-73
2023/12/30 17:27:55;;;;;;;;;;;9.60;99.90;;;;;;2617537;47;19954;-74
2023/12/30 17:30:25;;;;;;;;;;;9.50;99.90;;;;;;2617015;47;20441;-73
2023/12/30 17:32:55;;;;;;;;;;;9.50;99.90;;;;;;2620711;54;19947;-72
2023/12/30 17:35:26;;;;;;;;;;;9.70;99.90;;;;;;2619594;54;19953;-72
2023/12/30 17:37:56;;;;;;;;;;;9.50;99.90;;;;;;2618365;39;20361;-71
2023/12/30 17:40:26;;;;;;;;;;;9.40;99.90;;;;;;2617374;54;19947;-72
2023/12/30 17:42:58;;;;;;;;;;;9.30;99.90;;;;;;2619117;47;19996;-73
2023/12/30 17:45:29;;;;;;;;;;;9.30;99.90;;;;;;2625581;39;20424;-73
2023/12/30 17:47:58;;;;;;;;;;;9.20;99.90;;;;;;2622233;47;20038;-72
2023/12/30 17:50:28;;;;;;;;;;;9.20;99.90;;;;;;2618745;54;19953;-72
2023/12/30 17:52:58;;;;;;;;;;;9.20;99.90;;;;;;2618557;54;19946;-73
2023/12/30 17:55:31;;;;;;;;;;;9.20;99.90;;;;;;2617115;47;20001;-72
2023/12/30 17:58:03;;;;;;;;;;;9.20;99.90;;;;;;2618194;39;20002;-72
2023/12/30 18:00:35;;;;;;;;;;;9.20;99.90;;;;;;2617069;54;19953;-73
2023/12/30 18:03:05;;;;;;;;;;;9.20;99.90;;;;;;2615558;54;19951;-74
2023/12/30 18:10:59;;;;;;;;;;;9.20;99.90;;;;;;2577482;54;19969;-79
2023/12/30 18:13:32;;;;;;;;;;;9.40;99.90;;;;;;2629641;46;19943;-81
2023/12/30 18:16:02;;;;;;;;;;;9.30;99.90;;;;;;2629835;39;20498;-81
2023/12/30 18:18:32;;;;;;;;;;;9.30;99.90;;;;;;2627673;47;19926;-80
2023/12/30 18:21:03;;;;;;;;;;;9.30;99.90;;;;;;2627851;47;19939;-81
2023/12/30 18:23:33;;;;;;;;;;;9.30;99.90;;;;;;2629253;54;19938;-80
2023/12/30 18:26:03;;;;;;;;;;;9.30;99.90;;;;;;2629069;47;20062;-80
2023/12/30 18:28:36;;;;;;;;;;;9.20;99.90;;;;;;2628480;46;20062;-80
2023/12/30 18:31:06;;;;;;;;;;;9.00;99.90;;;;;;2627548;47;19946;-80
2023/12/30 18:33:37;;;;;;;;;;;9.10;99.90;;;;;;2628461;46;19954;-82
2023/12/30 18:36:07;;;;;;;;;;;9.10;99.90;;;;;;2627955;54;19942;-80
2023/12/30 18:38:37;;;;;;;;;;;9.20;99.90;;;;;;2626918;54;19957;-81
2023/12/30 18:41:07;;;;;;;;;;;9.10;99.90;;;;;;2627566;47;19976;-79
2023/12/30 18:43:40;;;;;;;;;;;9.20;99.90;;;;;;2633292;39;20928;-81
2023/12/30 18:46:10;;;;;;;;;;;9.20;99.90;;;;;;2629281;47;19942;-80
2023/12/30 18:48:40;;;;;;;;;;;9.10;99.90;;;;;;2629150;47;19947;-80
2023/12/30 18:51:11;;;;;;;;;;;9.10;99.90;;;;;;2635286;31;20697;-80
2023/12/30 18:53:41;;;;;;;;;;;9.40;99.90;;;;;;2628985;47;19965;-81
2023/12/30 18:56:11;;;;;;;;;;;9.10;99.90;;;;;;2628904;54;19939;-82
2023/12/30 18:58:43;;;;;;;;;;;9.20;99.90;;;;;;2628146;54;20437;-80
2023/12/30 19:01:15;;;;;;;;;;;9.10;99.90;;;;;;2627113;47;19988;-80
2023/12/30 19:03:45;;;;;;;;;;;9.20;99.90;;;;;;2626448;54;19957;-80
2023/12/30 19:06:16;;;;;;;;;;;9.20;99.90;;;;;;2627614;47;19953;-82
2023/12/30 19:08:47;;;;;;;;;;;9.20;99.90;;;;;;2629570;54;19951;-84
2023/12/30 19:11:18;;;;;;;;;;;9.20;99.90;;;;;;2629750;47;19950;-86
2023/12/30 19:13:50;;;;;;;;;;;9.60;99.90;;;;;;2618723;46;19946;-72
2023/12/30 19:16:21;;;;;;;;;;;9.20;99.90;;;;;;2617803;54;20061;-73
2023/12/30 19:18:51;;;;;;;;;;;9.20;99.90;;;;;;2617841;47;19968;-71
2023/12/30 19:21:21;;;;;;;;;;;9.20;99.90;;;;;;2617473;47;19939;-71
2023/12/30 19:23:51;;;;;;;;;;;9.20;99.90;;;;;;2617947;46;20022;-72
2023/12/30 19:26:20;;;;;;;;;;;9.20;99.90;;;;;;2617938;54;20037;-76
2023/12/30 19:28:53;;;;;;;;;;;9.30;99.90;;;;;;2618123;47;19946;-75
2023/12/30 19:31:22;;;;;;;;;;;9.30;99.90;;;;;;2617406;54;19946;-74
2023/12/30 19:33:52;;;;;;;;;;;9.30;99.90;;;;;;2617187;54;19946;-73
2023/12/30 19:36:23;;;;;;;;;;;9.30;99.90;;;;;;2618037;54;19977;-74
2023/12/30 19:38:54;;;;;;;;;;;9.40;99.90;;;;;;2622591;39;20408;-72
2023/12/30 19:41:24;;;;;;;;;;;9.40;99.90;;;;;;2619722;54;19938;-71
2023/12/30 19:43:56;;;;;;;;;;;9.40;99.90;;;;;;2618235;54;19954;-72
2023/12/30 19:46:26;;;;;;;;;;;9.40;99.90;;;;;;2618202;54;19953;-71
2023/12/30 19:48:56;;;;;;;;;;;9.40;99.90;;;;;;2616772;54;19946;-73
2023/12/30 19:51:26;;;;;;;;;;;9.40;99.90;;;;;;2615717;54;19946;-74
2023/12/30 19:53:55;;;;;;;;;;;9.40;99.90;;;;;;2616507;39;20371;-75